createdAt,value
2024-03-13T00:04:32.949Z,2.12
2024-03-13T00:14:32.865Z,2.06
2024-03-13T00:24:32.933Z,2.02
2024-03-13T00:34:33.050Z,1.82
2024-03-13T00:44:32.953Z,1.66
2024-03-13T00:54:32.903Z,1.63
2024-03-13T01:04:33.048Z,1.65
2024-03-13T01:14:32.913Z,1.51
2024-03-13T01:24:32.937Z,1.37
2024-03-13T01:34:33.073Z,1.2
2024-03-13T01:44:33.057Z,1
2024-03-13T01:54:32.956Z,0.9
2024-03-13T02:04:32.893Z,0.64
2024-03-13T02:14:32.931Z,0.44
2024-03-13T02:24:32.951Z,0.37
2024-03-13T02:34:33.114Z,0.25
2024-03-13T02:44:33.009Z,0.19
2024-03-13T02:54:32.978Z,-0.11
2024-03-13T03:04:33.027Z,-0.09
2024-03-13T03:14:32.961Z,-0.07
2024-03-13T03:24:33.093Z,-0.17
2024-03-13T03:34:32.974Z,-0.15
2024-03-13T03:44:33.075Z,-0.21
2024-03-13T03:54:33.022Z,-0.36
2024-03-13T04:04:33.064Z,-0.54
2024-03-13T04:14:33.023Z,-0.86
2024-03-13T04:24:33.084Z,-0.88
2024-03-13T04:34:33.257Z,-1
2024-03-13T04:44:33.040Z,-0.91
2024-03-13T04:54:33.162Z,-1.15
2024-03-13T05:04:33.136Z,-1.09
2024-03-13T05:14:33.028Z,-1.1
2024-03-13T05:24:33.142Z,-1.17
2024-03-13T05:34:33.091Z,-1.11
2024-03-13T05:44:33.170Z,-1.05
2024-03-13T05:54:33.089Z,-1.05
2024-03-13T06:04:34.446Z,-0.89
2024-03-13T06:14:33.238Z,-0.66
2024-03-13T06:24:33.147Z,-0.34
2024-03-13T06:34:35.269Z,0.05
2024-03-13T06:44:33.102Z,0.54
2024-03-13T06:54:33.257Z,2.02
2024-03-13T07:04:33.132Z,3.87
2024-03-13T07:14:33.111Z,4.9
2024-03-13T07:24:33.140Z,5.28
2024-03-13T07:34:33.227Z,5.32
2024-03-13T07:44:33.028Z,6.14
2024-03-13T07:54:33.220Z,6.55
2024-03-13T08:04:33.241Z,7.68
2024-03-13T09:14:33.190Z,10.32
2024-03-13T09:24:33.133Z,10.87
2024-03-13T09:34:33.207Z,11.15
2024-03-13T09:44:33.111Z,10.79
2024-03-13T09:54:33.103Z,11.29
2024-03-13T10:04:33.070Z,11.1
2024-03-13T10:14:33.084Z,12.86
2024-03-13T10:24:33.070Z,13.58
2024-03-13T10:34:33.048Z,14.2
2024-03-13T10:44:33.076Z,14.84
2024-03-13T10:54:33.126Z,14.12
2024-03-13T11:04:32.900Z,13.88
2024-03-13T11:14:33.118Z,14.81
2024-03-13T11:24:33.040Z,14.82
2024-03-13T11:34:32.988Z,14.59
2024-03-13T11:44:32.844Z,14.22
2024-03-13T11:54:32.999Z,14.49
2024-03-13T12:04:33.042Z,14.57
2024-03-13T12:14:32.872Z,14.68
2024-03-13T12:24:32.980Z,14.69
2024-03-13T12:34:32.965Z,14.88
2024-03-13T12:44:32.963Z,14.82
2024-03-13T12:54:32.993Z,14.97
2024-03-13T13:04:32.942Z,15.41
2024-03-13T13:14:32.939Z,15.19
2024-03-13T13:24:33.069Z,14.85
2024-03-13T13:34:32.980Z,15.04
2024-03-13T13:44:32.972Z,15.05
2024-03-13T13:54:33.934Z,14.86
2024-03-13T14:04:33.015Z,14.94
2024-03-13T14:14:32.965Z,15
2024-03-13T14:24:33.032Z,15.21
2024-03-13T14:34:32.853Z,14.84
2024-03-13T14:44:32.982Z,14.49
2024-03-13T14:54:32.897Z,14.4
2024-03-13T15:04:32.852Z,14.38
2024-03-13T15:14:32.844Z,14.52
2024-03-13T15:24:32.970Z,14.47
2024-03-13T15:34:32.713Z,14.61
2024-03-13T15:44:32.839Z,14.35
2024-03-13T15:54:32.981Z,14.15
2024-03-13T16:04:32.805Z,14.04
2024-03-13T16:14:32.665Z,14.02
2024-03-13T16:24:32.866Z,13.81
2024-03-13T16:34:32.783Z,13.5
2024-03-13T16:44:32.677Z,12.92
2024-03-13T16:54:32.759Z,11.9
2024-03-13T17:04:32.900Z,10.95
2024-03-13T17:14:32.751Z,10.36
2024-03-13T17:24:32.827Z,10.05
2024-03-13T17:34:32.725Z,9.57
2024-03-13T17:44:32.707Z,8.93
2024-03-13T17:54:33.037Z,8.45
2024-03-13T18:04:32.777Z,7.84
2024-03-13T18:14:32.839Z,7.37
2024-03-13T18:24:32.756Z,6.83
2024-03-13T18:34:32.852Z,6.43
2024-03-13T18:44:32.758Z,5.95
2024-03-13T18:54:32.877Z,5.62
2024-03-13T19:04:32.840Z,5.44
2024-03-13T19:14:32.745Z,5.1
2024-03-13T19:24:32.742Z,4.8
2024-03-13T19:34:32.887Z,4.53
2024-03-13T19:44:32.753Z,4.35
2024-03-13T19:54:32.864Z,4.28
2024-03-13T20:04:32.694Z,4.06
2024-03-13T20:14:32.798Z,3.99
2024-03-13T20:24:32.768Z,3.81
2024-03-13T20:34:32.865Z,3.62
2024-03-13T20:44:32.771Z,3.41
2024-03-13T20:54:32.848Z,3.24
2024-03-13T21:04:32.712Z,3.01
2024-03-13T21:14:32.776Z,2.6
2024-03-13T21:24:32.850Z,2.43
2024-03-13T21:34:35.497Z,2.25
2024-03-13T21:44:32.735Z,2.34
2024-03-13T21:54:32.780Z,2.17
2024-03-13T22:04:32.792Z,1.94
2024-03-13T22:14:32.796Z,1.89
2024-03-13T22:24:32.936Z,1.83
2024-03-13T22:34:32.873Z,1.85
2024-03-13T22:44:32.805Z,1.87
2024-03-13T22:54:32.816Z,1.66
2024-03-13T23:04:32.804Z,1.16
2024-03-13T23:14:32.816Z,1.04
2024-03-13T23:24:32.829Z,1.05
2024-03-13T23:34:32.896Z,1.05
2024-03-13T23:44:32.816Z,0.87
2024-03-13T23:54:32.825Z,1.03
